sensor_id;sensor_type;location;lat;lon;timestamp;temperature;humidity
1812;DHT22;904;47.814;11.134;2024-02-26T00:00:43;5.60;46.20
1812;DHT22;904;47.814;11.134;2024-02-26T00:03:13;5.60;46.50
1812;DHT22;904;47.814;11.134;2024-02-26T00:05:41;5.60;46.50
1812;DHT22;904;47.814;11.134;2024-02-26T00:08:08;5.60;46.70
1812;DHT22;904;47.814;11.134;2024-02-26T00:10:35;5.60;46.90
1812;DHT22;904;47.814;11.134;2024-02-26T00:13:02;5.60;47.10
1812;DHT22;904;47.814;11.134;2024-02-26T00:15:29;5.50;47.20
1812;DHT22;904;47.814;11.134;2024-02-26T00:17:58;5.50;47.30
1812;DHT22;904;47.814;11.134;2024-02-26T00:20:24;5.40;47.10
1812;DHT22;904;47.814;11.134;2024-02-26T00:22:51;5.40;47.60
1812;DHT22;904;47.814;11.134;2024-02-26T00:25:19;5.30;47.70
1812;DHT22;904;47.814;11.134;2024-02-26T00:27:46;5.30;47.80
1812;DHT22;904;47.814;11.134;2024-02-26T00:30:13;5.30;47.90
1812;DHT22;904;47.814;11.134;2024-02-26T00:32:40;5.30;48.00
1812;DHT22;904;47.814;11.134;2024-02-26T00:35:09;5.30;48.20
1812;DHT22;904;47.814;11.134;2024-02-26T00:37:36;5.30;47.80
1812;DHT22;904;47.814;11.134;2024-02-26T00:40:04;5.20;48.00
1812;DHT22;904;47.814;11.134;2024-02-26T00:42:32;5.20;48.10
1812;DHT22;904;47.814;11.134;2024-02-26T00:44:59;5.20;48.20
1812;DHT22;904;47.814;11.134;2024-02-26T00:47:26;5.20;48.30
1812;DHT22;904;47.814;11.134;2024-02-26T00:49:53;5.20;47.90
1812;DHT22;904;47.814;11.134;2024-02-26T00:52:22;5.10;48.00
1812;DHT22;904;47.814;11.134;2024-02-26T00:54:48;5.10;48.30
1812;DHT22;904;47.814;11.134;2024-02-26T00:57:15;5.10;48.40
1812;DHT22;904;47.814;11.134;2024-02-26T00:59:42;5.10;48.30
1812;DHT22;904;47.814;11.134;2024-02-26T01:02:09;5.00;49.00
1812;DHT22;904;47.814;11.134;2024-02-26T01:04:37;5.10;48.80
1812;DHT22;904;47.814;11.134;2024-02-26T01:07:04;5.00;48.80
1812;DHT22;904;47.814;11.134;2024-02-26T01:09:32;5.10;48.90
1812;DHT22;904;47.814;11.134;2024-02-26T01:11:59;5.10;48.90
1812;DHT22;904;47.814;11.134;2024-02-26T01:14:28;5.00;48.80
1812;DHT22;904;47.814;11.134;2024-02-26T01:16:55;5.00;49.00
1812;DHT22;904;47.814;11.134;2024-02-26T01:19:22;4.90;49.20
1812;DHT22;904;47.814;11.134;2024-02-26T01:21:49;5.00;49.40
1812;DHT22;904;47.814;11.134;2024-02-26T01:24:16;5.00;49.30
1812;DHT22;904;47.814;11.134;2024-02-26T01:26:44;5.00;48.90
1812;DHT22;904;47.814;11.134;2024-02-26T01:29:12;5.00;48.90
1812;DHT22;904;47.814;11.134;2024-02-26T01:31:39;5.00;48.90
1812;DHT22;904;47.814;11.134;2024-02-26T01:34:06;4.90;49.00
1812;DHT22;904;47.814;11.134;2024-02-26T01:36:33;4.80;49.10
1812;DHT22;904;47.814;11.134;2024-02-26T01:39:00;4.80;49.40
1812;DHT22;904;47.814;11.134;2024-02-26T01:41:29;4.80;49.60
1812;DHT22;904;47.814;11.134;2024-02-26T01:43:57;4.90;49.60
1812;DHT22;904;47.814;11.134;2024-02-26T01:46:24;4.90;49.30
1812;DHT22;904;47.814;11.134;2024-02-26T01:48:52;4.80;49.20
1812;DHT22;904;47.814;11.134;2024-02-26T01:51:19;4.80;49.20
1812;DHT22;904;47.814;11.134;2024-02-26T01:53:48;4.80;49.30
1812;DHT22;904;47.814;11.134;2024-02-26T01:56:16;4.80;49.20
1812;DHT22;904;47.814;11.134;2024-02-26T01:58:43;4.80;49.20
1812;DHT22;904;47.814;11.134;2024-02-26T02:01:12;4.80;49.50
1812;DHT22;904;47.814;11.134;2024-02-26T02:03:40;4.80;49.90
1812;DHT22;904;47.814;11.134;2024-02-26T02:06:07;4.80;50.20
1812;DHT22;904;47.814;11.134;2024-02-26T02:08:36;4.80;49.60
1812;DHT22;904;47.814;11.134;2024-02-26T02:11:04;4.80;49.30
1812;DHT22;904;47.814;11.134;2024-02-26T02:13:31;4.80;49.30
1812;DHT22;904;47.814;11.134;2024-02-26T02:15:59;4.70;49.40
1812;DHT22;904;47.814;11.134;2024-02-26T02:18:27;4.70;49.90
1812;DHT22;904;47.814;11.134;2024-02-26T02:20:55;4.80;49.80
1812;DHT22;904;47.814;11.134;2024-02-26T02:23:25;4.80;49.70
1812;DHT22;904;47.814;11.134;2024-02-26T02:25:53;4.70;49.60
1812;DHT22;904;47.814;11.134;2024-02-26T02:28:20;4.60;49.60
1812;DHT22;904;47.814;11.134;2024-02-26T02:30:48;4.70;49.80
1812;DHT22;904;47.814;11.134;2024-02-26T02:33:16;4.60;49.70
1812;DHT22;904;47.814;11.134;2024-02-26T02:35:43;4.50;49.80
1812;DHT22;904;47.814;11.134;2024-02-26T02:38:12;4.50;50.00
1812;DHT22;904;47.814;11.134;2024-02-26T02:40:39;4.50;50.30
1812;DHT22;904;47.814;11.134;2024-02-26T02:43:07;4.50;50.40
1812;DHT22;904;47.814;11.134;2024-02-26T02:45:34;4.50;50.50
1812;DHT22;904;47.814;11.134;2024-02-26T02:48:01;4.50;50.70
1812;DHT22;904;47.814;11.134;2024-02-26T02:50:28;4.50;50.50
1812;DHT22;904;47.814;11.134;2024-02-26T02:52:55;4.40;50.80
1812;DHT22;904;47.814;11.134;2024-02-26T02:55:23;4.40;51.50
1812;DHT22;904;47.814;11.134;2024-02-26T02:57:50;4.40;51.00
1812;DHT22;904;47.814;11.134;2024-02-26T03:00:18;4.40;51.20
1812;DHT22;904;47.814;11.134;2024-02-26T03:02:45;4.40;51.40
1812;DHT22;904;47.814;11.134;2024-02-26T03:05:12;4.50;51.50
1812;DHT22;904;47.814;11.134;2024-02-26T03:07:39;4.50;51.30
1812;DHT22;904;47.814;11.134;2024-02-26T03:10:06;4.50;51.50
1812;DHT22;904;47.814;11.134;2024-02-26T03:12:35;4.40;50.90
1812;DHT22;904;47.814;11.134;2024-02-26T03:15:02;4.40;50.90
1812;DHT22;904;47.814;11.134;2024-02-26T03:17:30;4.40;51.00
1812;DHT22;904;47.814;11.134;2024-02-26T03:19:57;4.40;51.10
1812;DHT22;904;47.814;11.134;2024-02-26T03:22:24;4.40;51.30
1812;DHT22;904;47.814;11.134;2024-02-26T03:24:51;4.40;51.60
1812;DHT22;904;47.814;11.134;2024-02-26T03:27:18;4.40;52.00
1812;DHT22;904;47.814;11.134;2024-02-26T03:29:46;4.40;51.70
1812;DHT22;904;47.814;11.134;2024-02-26T03:32:14;4.40;51.00
1812;DHT22;904;47.814;11.134;2024-02-26T03:34:41;4.40;50.90
1812;DHT22;904;47.814;11.134;2024-02-26T03:37:08;4.30;51.00
1812;DHT22;904;47.814;11.134;2024-02-26T03:39:36;4.30;51.10
1812;DHT22;904;47.814;11.134;2024-02-26T03:42:03;4.30;51.30
1812;DHT22;904;47.814;11.134;2024-02-26T03:44:31;4.20;51.50
1812;DHT22;904;47.814;11.134;2024-02-26T03:46:59;4.20;51.60
1812;DHT22;904;47.814;11.134;2024-02-26T03:49:26;4.20;51.90
1812;DHT22;904;47.814;11.134;2024-02-26T03:51:53;4.20;52.00
1812;DHT22;904;47.814;11.134;2024-02-26T03:54:20;4.30;52.00
1812;DHT22;904;47.814;11.134;2024-02-26T03:56:47;4.30;51.80
1812;DHT22;904;47.814;11.134;2024-02-26T03:59:14;4.30;51.60
1812;DHT22;904;47.814;11.134;2024-02-26T04:01:45;4.20;51.40
1812;DHT22;904;47.814;11.134;2024-02-26T04:04:14;4.20;51.90
1812;DHT22;904;47.814;11.134;2024-02-26T04:06:44;4.20;52.00
1812;DHT22;904;47.814;11.134;2024-02-26T04:09:12;4.20;52.10
1812;DHT22;904;47.814;11.134;2024-02-26T04:11:39;4.20;52.00
1812;DHT22;904;47.814;11.134;2024-02-26T04:14:06;4.20;52.20
1812;DHT22;904;47.814;11.134;2024-02-26T04:16:34;4.20;52.40
1812;DHT22;904;47.814;11.134;2024-02-26T04:19:01;4.20;52.40
1812;DHT22;904;47.814;11.134;2024-02-26T04:21:29;4.20;52.60
1812;DHT22;904;47.814;11.134;2024-02-26T04:23:56;4.20;52.40
1812;DHT22;904;47.814;11.134;2024-02-26T04:26:26;4.20;52.50
1812;DHT22;904;47.814;11.134;2024-02-26T04:28:53;4.20;52.60
1812;DHT22;904;47.814;11.134;2024-02-26T04:31:20;4.10;52.90
1812;DHT22;904;47.814;11.134;2024-02-26T04:33:47;4.10;53.20
1812;DHT22;904;47.814;11.134;2024-02-26T04:36:14;4.10;53.30
1812;DHT22;904;47.814;11.134;2024-02-26T04:38:43;4.20;53.50
1812;DHT22;904;47.814;11.134;2024-02-26T04:41:10;4.20;53.60
1812;DHT22;904;47.814;11.134;2024-02-26T04:43:37;4.30;53.70
1812;DHT22;904;47.814;11.134;2024-02-26T04:46:07;4.30;53.20
1812;DHT22;904;47.814;11.134;2024-02-26T04:48:35;4.20;53.30
1812;DHT22;904;47.814;11.134;2024-02-26T04:51:02;4.30;53.40
1812;DHT22;904;47.814;11.134;2024-02-26T04:53:29;4.20;53.30
1812;DHT22;904;47.814;11.134;2024-02-26T04:55:58;4.30;53.70
1812;DHT22;904;47.814;11.134;2024-02-26T04:58:25;4.30;53.30
1812;DHT22;904;47.814;11.134;2024-02-26T05:00:52;4.30;52.90
1812;DHT22;904;47.814;11.134;2024-02-26T05:03:19;4.30;52.80
1812;DHT22;904;47.814;11.134;2024-02-26T05:05:46;4.30;52.90
1812;DHT22;904;47.814;11.134;2024-02-26T05:08:13;4.30;52.80
1812;DHT22;904;47.814;11.134;2024-02-26T05:10:40;4.30;52.80
1812;DHT22;904;47.814;11.134;2024-02-26T05:13:10;4.20;53.00
1812;DHT22;904;47.814;11.134;2024-02-26T05:15:37;4.20;53.10
1812;DHT22;904;47.814;11.134;2024-02-26T05:18:04;4.20;53.50
1812;DHT22;904;47.814;11.134;2024-02-26T05:20:33;4.20;53.80
1812;DHT22;904;47.814;11.134;2024-02-26T05:23:01;4.20;53.80
1812;DHT22;904;47.814;11.134;2024-02-26T05:25:29;4.30;53.90
1812;DHT22;904;47.814;11.134;2024-02-26T05:27:58;4.30;53.50
1812;DHT22;904;47.814;11.134;2024-02-26T05:30:27;4.30;53.90
1812;DHT22;904;47.814;11.134;2024-02-26T05:32:54;4.30;53.70
1812;DHT22;904;47.814;11.134;2024-02-26T05:35:26;4.30;53.50
1812;DHT22;904;47.814;11.134;2024-02-26T05:37:53;4.30;53.50
1812;DHT22;904;47.814;11.134;2024-02-26T05:40:25;4.30;53.50
1812;DHT22;904;47.814;11.134;2024-02-26T05:42:52;4.30;53.50
1812;DHT22;904;47.814;11.134;2024-02-26T05:45:22;4.30;53.70
1812;DHT22;904;47.814;11.134;2024-02-26T05:47:50;4.30;53.80
1812;DHT22;904;47.814;11.134;2024-02-26T05:50:18;4.30;54.00
1812;DHT22;904;47.814;11.134;2024-02-26T05:52:44;4.30;54.00
1812;DHT22;904;47.814;11.134;2024-02-26T05:55:11;4.40;53.90
1812;DHT22;904;47.814;11.134;2024-02-26T05:57:39;4.30;54.40
1812;DHT22;904;47.814;11.134;2024-02-26T06:00:07;4.30;54.10
1812;DHT22;904;47.814;11.134;2024-02-26T06:02:34;4.40;54.10
1812;DHT22;904;47.814;11.134;2024-02-26T06:05:03;4.40;54.20
1812;DHT22;904;47.814;11.134;2024-02-26T06:07:33;4.40;54.30
1812;DHT22;904;47.814;11.134;2024-02-26T06:10:00;4.40;54.40
1812;DHT22;904;47.814;11.134;2024-02-26T06:12:28;4.50;54.70
1812;DHT22;904;47.814;11.134;2024-02-26T06:14:56;4.50;54.90
1812;DHT22;904;47.814;11.134;2024-02-26T06:17:23;4.60;55.00
1812;DHT22;904;47.814;11.134;2024-02-26T06:19:50;4.60;55.00
1812;DHT22;904;47.814;11.134;2024-02-26T06:22:19;4.70;55.00
1812;DHT22;904;47.814;11.134;2024-02-26T06:24:46;4.70;55.00
1812;DHT22;904;47.814;11.134;2024-02-26T06:27:13;4.80;55.00
1812;DHT22;904;47.814;11.134;2024-02-26T06:29:40;4.80;55.00
1812;DHT22;904;47.814;11.134;2024-02-26T06:32:07;4.80;54.70
1812;DHT22;904;47.814;11.134;2024-02-26T06:34:34;4.80;54.50
1812;DHT22;904;47.814;11.134;2024-02-26T06:37:01;4.90;54.90
1812;DHT22;904;47.814;11.134;2024-02-26T06:39:30;4.90;55.00
1812;DHT22;904;47.814;11.134;2024-02-26T06:41:57;4.90;55.00
1812;DHT22;904;47.814;11.134;2024-02-26T06:44:26;5.00;54.40
1812;DHT22;904;47.814;11.134;2024-02-26T06:46:57;5.10;54.40
1812;DHT22;904;47.814;11.134;2024-02-26T06:49:25;5.10;54.50
1812;DHT22;904;47.814;11.134;2024-02-26T06:51:52;5.10;54.30
1812;DHT22;904;47.814;11.134;2024-02-26T06:54:19;5.10;54.40
1812;DHT22;904;47.814;11.134;2024-02-26T06:56:47;5.10;54.60
1812;DHT22;904;47.814;11.134;2024-02-26T06:59:14;5.20;54.70
1812;DHT22;904;47.814;11.134;2024-02-26T07:01:41;5.20;54.90
1812;DHT22;904;47.814;11.134;2024-02-26T07:04:08;5.20;55.40
1812;DHT22;904;47.814;11.134;2024-02-26T07:06:36;5.20;55.50
1812;DHT22;904;47.814;11.134;2024-02-26T07:09:03;5.30;55.70
1812;DHT22;904;47.814;11.134;2024-02-26T07:11:30;5.40;55.60
1812;DHT22;904;47.814;11.134;2024-02-26T07:13:59;5.50;55.40
1812;DHT22;904;47.814;11.134;2024-02-26T07:16:26;5.60;55.40
1812;DHT22;904;47.814;11.134;2024-02-26T07:18:53;5.60;55.00
1812;DHT22;904;47.814;11.134;2024-02-26T07:21:20;5.70;55.00
1812;DHT22;904;47.814;11.134;2024-02-26T07:23:47;5.80;55.50
1812;DHT22;904;47.814;11.134;2024-02-26T07:26:14;5.80;55.40
1812;DHT22;904;47.814;11.134;2024-02-26T07:28:43;5.90;55.20
1812;DHT22;904;47.814;11.134;2024-02-26T07:31:11;5.90;55.30
1812;DHT22;904;47.814;11.134;2024-02-26T07:33:38;6.00;55.60
1812;DHT22;904;47.814;11.134;2024-02-26T07:36:05;6.00;55.50
1812;DHT22;904;47.814;11.134;2024-02-26T07:38:32;6.10;55.30
1812;DHT22;904;47.814;11.134;2024-02-26T07:41:01;6.10;54.90
1812;DHT22;904;47.814;11.134;2024-02-26T07:43:28;6.10;54.70
1812;DHT22;904;47.814;11.134;2024-02-26T07:45:55;6.20;54.70
1812;DHT22;904;47.814;11.134;2024-02-26T07:48:23;6.40;54.00
1812;DHT22;904;47.814;11.134;2024-02-26T07:50:50;6.40;53.20
1812;DHT22;904;47.814;11.134;2024-02-26T07:53:17;6.50;53.40
1812;DHT22;904;47.814;11.134;2024-02-26T07:55:44;6.70;53.10
1812;DHT22;904;47.814;11.134;2024-02-26T07:58:11;6.70;52.80
1812;DHT22;904;47.814;11.134;2024-02-26T08:00:37;6.90;52.90
1812;DHT22;904;47.814;11.134;2024-02-26T08:03:05;7.10;52.20
1812;DHT22;904;47.814;11.134;2024-02-26T08:05:33;7.20;52.10
1812;DHT22;904;47.814;11.134;2024-02-26T08:08:00;7.30;52.20
1812;DHT22;904;47.814;11.134;2024-02-26T08:10:27;7.60;53.00
1812;DHT22;904;47.814;11.134;2024-02-26T08:12:54;7.90;52.70
1812;DHT22;904;47.814;11.134;2024-02-26T08:15:22;8.10;51.60
1812;DHT22;904;47.814;11.134;2024-02-26T08:17:49;8.10;50.90
1812;DHT22;904;47.814;11.134;2024-02-26T08:20:16;8.10;50.50
1812;DHT22;904;47.814;11.134;2024-02-26T08:22:45;8.10;50.70
1812;DHT22;904;47.814;11.134;2024-02-26T08:25:13;8.10;50.70
1812;DHT22;904;47.814;11.134;2024-02-26T08:27:41;8.10;50.60
1812;DHT22;904;47.814;11.134;2024-02-26T08:30:09;8.00;50.80
1812;DHT22;904;47.814;11.134;2024-02-26T08:32:39;8.00;50.80
1812;DHT22;904;47.814;11.134;2024-02-26T08:35:06;7.90;50.70
1812;DHT22;904;47.814;11.134;2024-02-26T08:37:33;7.80;50.60
1812;DHT22;904;47.814;11.134;2024-02-26T08:40:02;7.80;51.00
1812;DHT22;904;47.814;11.134;2024-02-26T08:42:30;7.80;51.60
1812;DHT22;904;47.814;11.134;2024-02-26T08:44:57;7.80;52.50
1812;DHT22;904;47.814;11.134;2024-02-26T08:47:26;7.80;52.30
1812;DHT22;904;47.814;11.134;2024-02-26T08:49:53;7.90;52.70
1812;DHT22;904;47.814;11.134;2024-02-26T08:52:20;7.90;52.50
1812;DHT22;904;47.814;11.134;2024-02-26T08:54:49;8.00;52.60
1812;DHT22;904;47.814;11.134;2024-02-26T08:57:17;8.10;52.50
1812;DHT22;904;47.814;11.134;2024-02-26T08:59:44;8.20;52.90
1812;DHT22;904;47.814;11.134;2024-02-26T09:02:11;8.30;52.40
1812;DHT22;904;47.814;11.134;2024-02-26T09:04:38;8.50;52.90
1812;DHT22;904;47.814;11.134;2024-02-26T09:07:05;8.60;53.00
1812;DHT22;904;47.814;11.134;2024-02-26T09:09:33;8.80;52.50
1812;DHT22;904;47.814;11.134;2024-02-26T09:12:00;9.00;52.10
1812;DHT22;904;47.814;11.134;2024-02-26T09:14:28;9.20;52.00
1812;DHT22;904;47.814;11.134;2024-02-26T09:16:55;9.30;51.80
1812;DHT22;904;47.814;11.134;2024-02-26T09:19:22;9.30;51.40
1812;DHT22;904;47.814;11.134;2024-02-26T09:21:51;9.40;50.60
1812;DHT22;904;47.814;11.134;2024-02-26T09:24:19;9.50;49.90
1812;DHT22;904;47.814;11.134;2024-02-26T09:26:46;9.40;49.00
1812;DHT22;904;47.814;11.134;2024-02-26T09:29:13;9.50;49.00
1812;DHT22;904;47.814;11.134;2024-02-26T09:31:41;9.60;48.70
1812;DHT22;904;47.814;11.134;2024-02-26T09:34:09;9.70;47.80
1812;DHT22;904;47.814;11.134;2024-02-26T09:36:36;9.80;47.60
1812;DHT22;904;47.814;11.134;2024-02-26T09:39:03;9.80;47.40
1812;DHT22;904;47.814;11.134;2024-02-26T09:41:31;9.80;47.50
1812;DHT22;904;47.814;11.134;2024-02-26T09:43:58;9.80;47.60
1812;DHT22;904;47.814;11.134;2024-02-26T09:46:26;9.90;47.70
1812;DHT22;904;47.814;11.134;2024-02-26T09:48:54;10.00;47.00
1812;DHT22;904;47.814;11.134;2024-02-26T09:51:23;10.10;47.30
1812;DHT22;904;47.814;11.134;2024-02-26T09:53:51;10.40;48.20
1812;DHT22;904;47.814;11.134;2024-02-26T09:56:19;10.90;48.20
1812;DHT22;904;47.814;11.134;2024-02-26T09:58:46;11.40;47.40
1812;DHT22;904;47.814;11.134;2024-02-26T10:01:18;11.80;46.70
1812;DHT22;904;47.814;11.134;2024-02-26T10:03:51;12.10;46.50
1812;DHT22;904;47.814;11.134;2024-02-26T10:06:21;12.40;46.40
1812;DHT22;904;47.814;11.134;2024-02-26T10:08:47;12.50;45.50
1812;DHT22;904;47.814;11.134;2024-02-26T10:11:15;12.50;44.90
1812;DHT22;904;47.814;11.134;2024-02-26T10:13:42;12.50;44.50
1812;DHT22;904;47.814;11.134;2024-02-26T10:16:09;12.50;44.80
1812;DHT22;904;47.814;11.134;2024-02-26T10:18:45;12.50;44.90
1812;DHT22;904;47.814;11.134;2024-02-26T10:21:13;12.50;44.90
1812;DHT22;904;47.814;11.134;2024-02-26T10:23:44;12.40;45.00
1812;DHT22;904;47.814;11.134;2024-02-26T10:26:13;12.40;45.20
1812;DHT22;904;47.814;11.134;2024-02-26T10:28:42;12.40;45.20
1812;DHT22;904;47.814;11.134;2024-02-26T10:31:11;12.40;45.50
1812;DHT22;904;47.814;11.134;2024-02-26T10:33:39;12.50;46.20
1812;DHT22;904;47.814;11.134;2024-02-26T10:36:07;12.50;46.70
1812;DHT22;904;47.814;11.134;2024-02-26T10:38:35;12.60;47.00
1812;DHT22;904;47.814;11.134;2024-02-26T10:41:04;12.80;46.60
1812;DHT22;904;47.814;11.134;2024-02-26T10:43:32;13.00;46.70
1812;DHT22;904;47.814;11.134;2024-02-26T10:46:00;13.10;46.40
1812;DHT22;904;47.814;11.134;2024-02-26T10:48:27;13.30;46.60
1812;DHT22;904;47.814;11.134;2024-02-26T10:50:54;13.40;46.60
1812;DHT22;904;47.814;11.134;2024-02-26T10:53:23;13.60;46.70
1812;DHT22;904;47.814;11.134;2024-02-26T10:55:57;13.80;46.50
1812;DHT22;904;47.814;11.134;2024-02-26T10:58:27;14.30;46.70
1812;DHT22;904;47.814;11.134;2024-02-26T11:00:56;14.90;46.10
1812;DHT22;904;47.814;11.134;2024-02-26T11:03:24;15.60;45.20
1812;DHT22;904;47.814;11.134;2024-02-26T11:05:52;16.20;43.80
1812;DHT22;904;47.814;11.134;2024-02-26T11:08:20;16.70;43.80
1812;DHT22;904;47.814;11.134;2024-02-26T11:10:48;17.30;43.60
1812;DHT22;904;47.814;11.134;2024-02-26T11:13:18;17.90;42.10
1812;DHT22;904;47.814;11.134;2024-02-26T11:15:48;18.40;40.70
1812;DHT22;904;47.814;11.134;2024-02-26T11:18:16;19.00;40.80
1812;DHT22;904;47.814;11.134;2024-02-26T11:20:46;19.60;40.70
1812;DHT22;904;47.814;11.134;2024-02-26T11:23:14;20.20;39.70
1812;DHT22;904;47.814;11.134;2024-02-26T11:25:42;20.90;37.80
1812;DHT22;904;47.814;11.134;2024-02-26T11:28:11;21.80;36.50
1812;DHT22;904;47.814;11.134;2024-02-26T11:30:43;22.70;35.20
1812;DHT22;904;47.814;11.134;2024-02-26T11:33:13;23.40;33.30
1812;DHT22;904;47.814;11.134;2024-02-26T11:35:40;23.90;29.90
1812;DHT22;904;47.814;11.134;2024-02-26T11:38:08;24.30;29.50
1812;DHT22;904;47.814;11.134;2024-02-26T11:40:38;24.70;29.30
1812;DHT22;904;47.814;11.134;2024-02-26T11:43:06;25.20;27.50
1812;DHT22;904;47.814;11.134;2024-02-26T11:45:51;25.50;26.30
1812;DHT22;904;47.814;11.134;2024-02-26T11:48:24;25.70;24.30
1812;DHT22;904;47.814;11.134;2024-02-26T11:50:52;25.60;24.70
1812;DHT22;904;47.814;11.134;2024-02-26T11:53:20;25.30;23.80
1812;DHT22;904;47.814;11.134;2024-02-26T11:55:47;25.20;24.70
1812;DHT22;904;47.814;11.134;2024-02-26T11:58:14;25.40;24.70
1812;DHT22;904;47.814;11.134;2024-02-26T12:00:42;25.50;24.80
1812;DHT22;904;47.814;11.134;2024-02-26T12:03:09;25.50;24.80
1812;DHT22;904;47.814;11.134;2024-02-26T12:05:39;25.60;24.50
1812;DHT22;904;47.814;11.134;2024-02-26T12:08:07;25.90;23.00
1812;DHT22;904;47.814;11.134;2024-02-26T12:10:36;26.20;22.60
1812;DHT22;904;47.814;11.134;2024-02-26T12:13:06;26.20;22.10
1812;DHT22;904;47.814;11.134;2024-02-26T12:15:37;25.90;21.90
1812;DHT22;904;47.814;11.134;2024-02-26T12:18:05;25.50;22.10
1812;DHT22;904;47.814;11.134;2024-02-26T12:20:33;25.40;23.20
1812;DHT22;904;47.814;11.134;2024-02-26T12:23:02;25.60;23.50
1812;DHT22;904;47.814;11.134;2024-02-26T12:25:36;25.90;23.80
1812;DHT22;904;47.814;11.134;2024-02-26T12:28:09;26.20;21.90
1812;DHT22;904;47.814;11.134;2024-02-26T12:30:36;26.60;21.50
1812;DHT22;904;47.814;11.134;2024-02-26T12:33:03;26.70;20.10
1812;DHT22;904;47.814;11.134;2024-02-26T12:35:32;26.60;20.10
1812;DHT22;904;47.814;11.134;2024-02-26T12:37:59;26.40;19.00
1812;DHT22;904;47.814;11.134;2024-02-26T12:40:27;26.20;19.50
1812;DHT22;904;47.814;11.134;2024-02-26T12:42:55;25.80;19.40
1812;DHT22;904;47.814;11.134;2024-02-26T12:45:22;25.30;19.80
1812;DHT22;904;47.814;11.134;2024-02-26T12:47:49;24.70;19.70
1812;DHT22;904;47.814;11.134;2024-02-26T12:50:16;24.00;20.10
1812;DHT22;904;47.814;11.134;2024-02-26T12:52:44;23.40;20.90
1812;DHT22;904;47.814;11.134;2024-02-26T12:55:14;22.80;21.10
1812;DHT22;904;47.814;11.134;2024-02-26T12:57:43;22.20;21.90
1812;DHT22;904;47.814;11.134;2024-02-26T13:00:13;21.60;22.30
1812;DHT22;904;47.814;11.134;2024-02-26T13:02:41;21.20;22.50
1812;DHT22;904;47.814;11.134;2024-02-26T13:05:10;20.80;23.10
1812;DHT22;904;47.814;11.134;2024-02-26T13:07:40;20.40;23.30
1812;DHT22;904;47.814;11.134;2024-02-26T13:10:09;20.00;23.70
1812;DHT22;904;47.814;11.134;2024-02-26T13:12:37;19.70;24.40
1812;DHT22;904;47.814;11.134;2024-02-26T13:15:07;19.30;24.70
1812;DHT22;904;47.814;11.134;2024-02-26T13:17:34;19.00;25.00
1812;DHT22;904;47.814;11.134;2024-02-26T13:20:01;18.80;25.30
1812;DHT22;904;47.814;11.134;2024-02-26T13:22:29;18.50;25.70
1812;DHT22;904;47.814;11.134;2024-02-26T13:24:59;18.30;25.70
1812;DHT22;904;47.814;11.134;2024-02-26T13:27:28;18.10;26.10
1812;DHT22;904;47.814;11.134;2024-02-26T13:30:03;17.90;26.50
1812;DHT22;904;47.814;11.134;2024-02-26T13:32:33;17.70;26.70
1812;DHT22;904;47.814;11.134;2024-02-26T13:35:05;17.50;27.30
1812;DHT22;904;47.814;11.134;2024-02-26T13:37:33;17.40;27.40
1812;DHT22;904;47.814;11.134;2024-02-26T13:40:00;17.20;27.90
1812;DHT22;904;47.814;11.134;2024-02-26T13:42:29;17.00;28.40
1812;DHT22;904;47.814;11.134;2024-02-26T13:44:56;16.90;28.70
1812;DHT22;904;47.814;11.134;2024-02-26T13:47:23;16.80;28.80
1812;DHT22;904;47.814;11.134;2024-02-26T13:49:52;16.70;29.20
1812;DHT22;904;47.814;11.134;2024-02-26T13:52:19;16.50;29.50
1812;DHT22;904;47.814;11.134;2024-02-26T13:54:46;16.40;29.70
1812;DHT22;904;47.814;11.134;2024-02-26T13:57:13;16.40;30.00
1812;DHT22;904;47.814;11.134;2024-02-26T13:59:40;16.30;30.00
1812;DHT22;904;47.814;11.134;2024-02-26T14:02:08;16.20;30.00
1812;DHT22;904;47.814;11.134;2024-02-26T14:04:37;16.10;30.00
1812;DHT22;904;47.814;11.134;2024-02-26T14:07:07;16.10;28.90
1812;DHT22;904;47.814;11.134;2024-02-26T14:09:34;15.90;27.70
1812;DHT22;904;47.814;11.134;2024-02-26T14:12:07;15.80;27.10
1812;DHT22;904;47.814;11.134;2024-02-26T14:14:34;15.60;27.10
1812;DHT22;904;47.814;11.134;2024-02-26T14:17:08;15.50;27.80
1812;DHT22;904;47.814;11.134;2024-02-26T14:19:35;15.50;28.50
1812;DHT22;904;47.814;11.134;2024-02-26T14:22:05;15.40;28.60
1812;DHT22;904;47.814;11.134;2024-02-26T14:24:32;15.30;29.00
1812;DHT22;904;47.814;11.134;2024-02-26T14:26:59;15.30;29.60
1812;DHT22;904;47.814;11.134;2024-02-26T14:29:26;15.20;30.00
1812;DHT22;904;47.814;11.134;2024-02-26T14:31:53;15.20;30.80
1812;DHT22;904;47.814;11.134;2024-02-26T14:34:22;15.10;31.10
1812;DHT22;904;47.814;11.134;2024-02-26T14:36:48;15.00;31.60
1812;DHT22;904;47.814;11.134;2024-02-26T14:39:17;15.00;32.10
1812;DHT22;904;47.814;11.134;2024-02-26T14:41:44;14.90;31.70
1812;DHT22;904;47.814;11.134;2024-02-26T14:44:11;14.80;31.70
1812;DHT22;904;47.814;11.134;2024-02-26T14:46:38;14.80;32.30
1812;DHT22;904;47.814;11.134;2024-02-26T14:49:05;14.80;33.00
1812;DHT22;904;47.814;11.134;2024-02-26T14:51:32;14.70;33.20
1812;DHT22;904;47.814;11.134;2024-02-26T14:53:59;14.60;33.30
1812;DHT22;904;47.814;11.134;2024-02-26T14:56:28;14.60;34.30
1812;DHT22;904;47.814;11.134;2024-02-26T14:58:55;14.50;34.40
1812;DHT22;904;47.814;11.134;2024-02-26T15:01:23;14.50;35.00
1812;DHT22;904;47.814;11.134;2024-02-26T15:03:52;14.40;35.30
1812;DHT22;904;47.814;11.134;2024-02-26T15:06:19;14.40;34.70
1812;DHT22;904;47.814;11.134;2024-02-26T15:08:46;14.30;34.90
1812;DHT22;904;47.814;11.134;2024-02-26T15:11:13;14.30;34.80
1812;DHT22;904;47.814;11.134;2024-02-26T15:13:45;14.30;34.70
1812;DHT22;904;47.814;11.134;2024-02-26T15:16:17;14.20;34.50
1812;DHT22;904;47.814;11.134;2024-02-26T15:18:44;14.20;34.70
1812;DHT22;904;47.814;11.134;2024-02-26T15:21:11;14.20;34.90
1812;DHT22;904;47.814;11.134;2024-02-26T15:23:38;14.20;35.30
1812;DHT22;904;47.814;11.134;2024-02-26T15:26:05;14.10;35.80
1812;DHT22;904;47.814;11.134;2024-02-26T15:28:32;14.10;35.90
1812;DHT22;904;47.814;11.134;2024-02-26T15:31:01;14.10;36.20
1812;DHT22;904;47.814;11.134;2024-02-26T15:33:28;14.10;36.70
1812;DHT22;904;47.814;11.134;2024-02-26T15:35:55;14.00;36.80
1812;DHT22;904;47.814;11.134;2024-02-26T15:38:21;14.00;37.10
1812;DHT22;904;47.814;11.134;2024-02-26T15:40:48;14.00;37.60
1812;DHT22;904;47.814;11.134;2024-02-26T15:43:16;13.90;37.50
1812;DHT22;904;47.814;11.134;2024-02-26T15:45:45;13.90;37.70
1812;DHT22;904;47.814;11.134;2024-02-26T15:48:13;13.90;37.70
1812;DHT22;904;47.814;11.134;2024-02-26T15:50:41;13.90;37.60
1812;DHT22;904;47.814;11.134;2024-02-26T15:53:07;13.80;37.70
1812;DHT22;904;47.814;11.134;2024-02-26T15:55:34;13.80;37.90
1812;DHT22;904;47.814;11.134;2024-02-26T15:58:01;13.70;37.90
1812;DHT22;904;47.814;11.134;2024-02-26T16:00:28;13.60;37.80
1812;DHT22;904;47.814;11.134;2024-02-26T16:02:55;13.60;38.10
1812;DHT22;904;47.814;11.134;2024-02-26T16:05:24;13.50;38.10
1812;DHT22;904;47.814;11.134;2024-02-26T16:07:53;13.50;38.40
1812;DHT22;904;47.814;11.134;2024-02-26T16:10:21;13.40;38.50
1812;DHT22;904;47.814;11.134;2024-02-26T16:12:50;13.30;38.70
1812;DHT22;904;47.814;11.134;2024-02-26T16:15:18;13.30;38.80